<?xml version="1.0" encoding="UTF-8" standalone="no" ?>
<gpx xmlns="http://www.topografix.com/GPX/1/1" xmlns:xsi="http://www.w3.org/2001/XMLSchema-instance" xsi:schemaLocation="http://www.topografix.com/GPX/1/1 http://www.topografix.com/GPX/1/1/gpx.xsd" version="1.1" creator="VisuGPX - https://www.visugpx.com">
  <metadata>
    <name>CHALO_SAINT_MARS_ST_HILAIRE</name>
    <desc><![CDATA[AVF Antony CHALO_SAINT_MARS_ST_HILAIRE]]></desc>
  </metadata>
  <trk>
    <name><![CDATA[ACTIVE LOG 002]]></name>
    <trkseg>
      <trkpt lat="48.42667" lon="2.06925">
        <ele>79.446045</ele>
        <time>2009-03-15T12:17:42Z</time>
      </trkpt>
      <trkpt lat="48.42671" lon="2.06925">
        <ele>50.125977</ele>
        <time>2009-03-15T12:17:43Z</time>
      </trkpt>
      <trkpt lat="48.42672" lon="2.06926">
        <ele>49.645264</ele>
        <time>2009-03-15T12:17:49Z</time>
      </trkpt>
      <trkpt lat="48.42667" lon="2.06922">
        <ele>49.645264</ele>
        <time>2009-03-15T12:18:16Z</time>
      </trkpt>
      <trkpt lat="48.42658" lon="2.06917">
        <ele>50.125977</ele>
        <time>2009-03-15T12:18:28Z</time>
      </trkpt>
      <trkpt lat="48.42659" lon="2.06916">
        <ele>50.125977</ele>
        <time>2009-03-15T12:18:42Z</time>
      </trkpt>
      <trkpt lat="48.42656" lon="2.06915">
        <ele>48.68396</ele>
        <time>2009-03-15T12:18:52Z</time>
      </trkpt>
      <trkpt lat="48.42651" lon="2.06909">
        <ele>49.164551</ele>
        <time>2009-03-15T12:19:03Z</time>
      </trkpt>
      <trkpt lat="48.42649" lon="2.06911">
        <ele>49.645264</ele>
        <time>2009-03-15T12:19:11Z</time>
      </trkpt>
      <trkpt lat="48.42646" lon="2.06894">
        <ele>51.087158</ele>
        <time>2009-03-15T12:19:23Z</time>
      </trkpt>
      <trkpt lat="48.42643" lon="2.06882">
        <ele>49.645264</ele>
        <time>2009-03-15T12:19:33Z</time>
      </trkpt>
      <trkpt lat="48.4264" lon="2.06872">
        <ele>50.125977</ele>
        <time>2009-03-15T12:19:41Z</time>
      </trkpt>
      <trkpt lat="48.42636" lon="2.06864">
        <ele>50.125977</ele>
        <time>2009-03-15T12:19:49Z</time>
      </trkpt>
      <trkpt lat="48.42631" lon="2.06859">
        <ele>51.087158</ele>
        <time>2009-03-15T12:19:58Z</time>
      </trkpt>
      <trkpt lat="48.42627" lon="2.06859">
        <ele>51.087158</ele>
        <time>2009-03-15T12:20:06Z</time>
      </trkpt>
      <trkpt lat="48.4263" lon="2.06851">
        <ele>51.087158</ele>
        <time>2009-03-15T12:20:14Z</time>
      </trkpt>
      <trkpt lat="48.42634" lon="2.06841">
        <ele>51.567871</ele>
        <time>2009-03-15T12:20:25Z</time>
      </trkpt>
      <trkpt lat="48.42638" lon="2.06835">
        <ele>51.567871</ele>
        <time>2009-03-15T12:20:33Z</time>
      </trkpt>
      <trkpt lat="48.42641" lon="2.0683">
        <ele>52.048584</ele>
        <time>2009-03-15T12:20:41Z</time>
      </trkpt>
      <trkpt lat="48.42644" lon="2.0682">
        <ele>52.529175</ele>
        <time>2009-03-15T12:20:50Z</time>
      </trkpt>
      <trkpt lat="48.42647" lon="2.06812">
        <ele>53.009766</ele>
        <time>2009-03-15T12:21:00Z</time>
      </trkpt>
      <trkpt lat="48.4265" lon="2.06807">
        <ele>53.490479</ele>
        <time>2009-03-15T12:21:07Z</time>
      </trkpt>
      <trkpt lat="48.42651" lon="2.06808">
        <ele>53.490479</ele>
        <time>2009-03-15T12:21:20Z</time>
      </trkpt>
      <trkpt lat="48.42658" lon="2.06811">
        <ele>53.490479</ele>
        <time>2009-03-15T12:21:34Z</time>
      </trkpt>
      <trkpt lat="48.42667" lon="2.06813">
        <ele>53.009766</ele>
        <time>2009-03-15T12:21:46Z</time>
      </trkpt>
      <trkpt lat="48.42671" lon="2.06818">
        <ele>53.009766</ele>
        <time>2009-03-15T12:21:55Z</time>
      </trkpt>
      <trkpt lat="48.42674" lon="2.06816">
        <ele>53.490479</ele>
        <time>2009-03-15T12:22:04Z</time>
      </trkpt>
      <trkpt lat="48.42679" lon="2.06815">
        <ele>53.009766</ele>
        <time>2009-03-15T12:22:13Z</time>
      </trkpt>
      <trkpt lat="48.42681" lon="2.06808">
        <ele>53.009766</ele>
        <time>2009-03-15T12:22:25Z</time>
      </trkpt>
      <trkpt lat="48.42687" lon="2.0679">
        <ele>53.971191</ele>
        <time>2009-03-15T12:22:41Z</time>
      </trkpt>
      <trkpt lat="48.42692" lon="2.06774">
        <ele>55.893799</ele>
        <time>2009-03-15T12:22:54Z</time>
      </trkpt>
      <trkpt lat="48.42695" lon="2.06761">
        <ele>55.893799</ele>
        <time>2009-03-15T12:23:01Z</time>
      </trkpt>
      <trkpt lat="48.42698" lon="2.06758">
        <ele>56.374512</ele>
        <time>2009-03-15T12:23:05Z</time>
      </trkpt>
      <trkpt lat="48.42706" lon="2.06751">
        <ele>56.855103</ele>
        <time>2009-03-15T12:23:14Z</time>
      </trkpt>
      <trkpt lat="48.42716" lon="2.06758">
        <ele>56.855103</ele>
        <time>2009-03-15T12:23:27Z</time>
      </trkpt>
      <trkpt lat="48.42726" lon="2.06763">
        <ele>57.335815</ele>
        <time>2009-03-15T12:23:40Z</time>
      </trkpt>
      <trkpt lat="48.42729" lon="2.06763">
        <ele>57.335815</ele>
        <time>2009-03-15T12:23:51Z</time>
      </trkpt>
      <trkpt lat="48.42732" lon="2.06763">
        <ele>57.816528</ele>
        <time>2009-03-15T12:24:07Z</time>
      </trkpt>
      <trkpt lat="48.42741" lon="2.0675">
        <ele>60.700317</ele>
        <time>2009-03-15T12:24:26Z</time>
      </trkpt>
      <trkpt lat="48.42748" lon="2.06745">
        <ele>62.142334</ele>
        <time>2009-03-15T12:24:41Z</time>
      </trkpt>
      <trkpt lat="48.42754" lon="2.06738">
        <ele>64.065063</ele>
        <time>2009-03-15T12:24:56Z</time>
      </trkpt>
      <trkpt lat="48.42755" lon="2.06736">
        <ele>65.50708</ele>
        <time>2009-03-15T12:25:07Z</time>
      </trkpt>
      <trkpt lat="48.42761" lon="2.0673">
        <ele>67.429688</ele>
        <time>2009-03-15T12:25:34Z</time>
      </trkpt>
      <trkpt lat="48.42764" lon="2.06725">
        <ele>69.352295</ele>
        <time>2009-03-15T12:25:48Z</time>
      </trkpt>
      <trkpt lat="48.4277" lon="2.06719">
        <ele>71.755493</ele>
        <time>2009-03-15T12:26:07Z</time>
      </trkpt>
      <trkpt lat="48.42779" lon="2.06713">
        <ele>74.639526</ele>
        <time>2009-03-15T12:26:26Z</time>
      </trkpt>
      <trkpt lat="48.42783" lon="2.06704">
        <ele>77.042847</ele>
        <time>2009-03-15T12:26:38Z</time>
      </trkpt>
      <trkpt lat="48.42788" lon="2.06699">
        <ele>79.926636</ele>
        <time>2009-03-15T12:26:49Z</time>
      </trkpt>
      <trkpt lat="48.42791" lon="2.06689">
        <ele>79.926636</ele>
        <time>2009-03-15T12:26:59Z</time>
      </trkpt>
      <trkpt lat="48.42797" lon="2.06683">
        <ele>81.368774</ele>
        <time>2009-03-15T12:27:08Z</time>
      </trkpt>
      <trkpt lat="48.42798" lon="2.06669">
        <ele>81.849365</ele>
        <time>2009-03-15T12:27:18Z</time>
      </trkpt>
      <trkpt lat="48.428" lon="2.06667">
        <ele>81.849365</ele>
        <time>2009-03-15T12:27:26Z</time>
      </trkpt>
      <trkpt lat="48.42804" lon="2.06669">
        <ele>82.810791</ele>
        <time>2009-03-15T12:27:46Z</time>
      </trkpt>
      <trkpt lat="48.42811" lon="2.06667">
        <ele>83.291382</ele>
        <time>2009-03-15T12:27:57Z</time>
      </trkpt>
      <trkpt lat="48.42821" lon="2.06656">
        <ele>85.213989</ele>
        <time>2009-03-15T12:28:11Z</time>
      </trkpt>
      <trkpt lat="48.42827" lon="2.06647">
        <ele>87.136597</ele>
        <time>2009-03-15T12:28:25Z</time>
      </trkpt>
      <trkpt lat="48.42831" lon="2.06643">
        <ele>88.578735</ele>
        <time>2009-03-15T12:28:36Z</time>
      </trkpt>
      <trkpt lat="48.42837" lon="2.06634">
        <ele>90.02063</ele>
        <time>2009-03-15T12:28:48Z</time>
      </trkpt>
      <trkpt lat="48.42842" lon="2.06627">
        <ele>91.462524</ele>
        <time>2009-03-15T12:29:00Z</time>
      </trkpt>
      <trkpt lat="48.4285" lon="2.06619">
        <ele>92.904541</ele>
        <time>2009-03-15T12:29:13Z</time>
      </trkpt>
      <trkpt lat="48.42856" lon="2.06612">
        <ele>94.827148</ele>
        <time>2009-03-15T12:29:26Z</time>
      </trkpt>
      <trkpt lat="48.42862" lon="2.06606">
        <ele>95.788452</ele>
        <time>2009-03-15T12:29:36Z</time>
      </trkpt>
      <trkpt lat="48.4287" lon="2.06596">
        <ele>97.711182</ele>
        <time>2009-03-15T12:29:49Z</time>
      </trkpt>
      <trkpt lat="48.42878" lon="2.06589">
        <ele>98.672485</ele>
        <time>2009-03-15T12:30:02Z</time>
      </trkpt>
      <trkpt lat="48.42882" lon="2.06587">
        <ele>99.633789</ele>
        <time>2009-03-15T12:30:10Z</time>
      </trkpt>
      <trkpt lat="48.42888" lon="2.06579">
        <ele>100.595093</ele>
        <time>2009-03-15T12:30:21Z</time>
      </trkpt>
      <trkpt lat="48.42888" lon="2.06579">
        <ele>100.595093</ele>
        <time>2009-03-15T12:30:22Z</time>
      </trkpt>
      <trkpt lat="48.42898" lon="2.06566">
        <ele>101.556396</ele>
        <time>2009-03-15T12:30:31Z</time>
      </trkpt>
      <trkpt lat="48.42904" lon="2.06558">
        <ele>102.5177</ele>
        <time>2009-03-15T12:30:38Z</time>
      </trkpt>
      <trkpt lat="48.42905" lon="2.06555">
        <ele>102.5177</ele>
        <time>2009-03-15T12:30:40Z</time>
      </trkpt>
      <trkpt lat="48.42911" lon="2.06546">
        <ele>103.959717</ele>
        <time>2009-03-15T12:30:47Z</time>
      </trkpt>
      <trkpt lat="48.42916" lon="2.06537">
        <ele>103.479004</ele>
        <time>2009-03-15T12:30:54Z</time>
      </trkpt>
      <trkpt lat="48.42923" lon="2.06526">
        <ele>103.479004</ele>
        <time>2009-03-15T12:31:02Z</time>
      </trkpt>
      <trkpt lat="48.42928" lon="2.06518">
        <ele>103.959717</ele>
        <time>2009-03-15T12:31:09Z</time>
      </trkpt>
      <trkpt lat="48.42935" lon="2.0651">
        <ele>104.44043</ele>
        <time>2009-03-15T12:31:18Z</time>
      </trkpt>
      <trkpt lat="48.42943" lon="2.06496">
        <ele>104.44043</ele>
        <time>2009-03-15T12:31:29Z</time>
      </trkpt>
      <trkpt lat="48.42946" lon="2.0649">
        <ele>104.921021</ele>
        <time>2009-03-15T12:31:35Z</time>
      </trkpt>
      <trkpt lat="48.42952" lon="2.06479">
        <ele>104.921021</ele>
        <time>2009-03-15T12:31:44Z</time>
      </trkpt>
      <trkpt lat="48.42955" lon="2.06466">
        <ele>105.401733</ele>
        <time>2009-03-15T12:31:52Z</time>
      </trkpt>
      <trkpt lat="48.42957" lon="2.06457">
        <ele>104.921021</ele>
        <time>2009-03-15T12:31:57Z</time>
      </trkpt>
      <trkpt lat="48.42955" lon="2.06445">
        <ele>104.921021</ele>
        <time>2009-03-15T12:32:06Z</time>
      </trkpt>
      <trkpt lat="48.42952" lon="2.06426">
        <ele>105.401733</ele>
        <time>2009-03-15T12:32:16Z</time>
      </trkpt>
      <trkpt lat="48.42952" lon="2.06408">
        <ele>104.921021</ele>
        <time>2009-03-15T12:32:27Z</time>
      </trkpt>
      <trkpt lat="48.42952" lon="2.06402">
        <ele>105.401733</ele>
        <time>2009-03-15T12:32:30Z</time>
      </trkpt>
      <trkpt lat="48.4295" lon="2.0639">
        <ele>104.921021</ele>
        <time>2009-03-15T12:32:38Z</time>
      </trkpt>
      <trkpt lat="48.42948" lon="2.06377">
        <ele>104.921021</ele>
        <time>2009-03-15T12:32:45Z</time>
      </trkpt>
      <trkpt lat="48.42948" lon="2.06365">
        <ele>104.921021</ele>
        <time>2009-03-15T12:32:53Z</time>
      </trkpt>
      <trkpt lat="48.42948" lon="2.0636">
        <ele>104.921021</ele>
        <time>2009-03-15T12:32:56Z</time>
      </trkpt>
      <trkpt lat="48.42948" lon="2.06342">
        <ele>104.44043</ele>
        <time>2009-03-15T12:33:06Z</time>
      </trkpt>
      <trkpt lat="48.42947" lon="2.06328">
        <ele>104.921021</ele>
        <time>2009-03-15T12:33:15Z</time>
      </trkpt>
      <trkpt lat="48.42946" lon="2.06321">
        <ele>104.44043</ele>
        <time>2009-03-15T12:33:19Z</time>
      </trkpt>
      <trkpt lat="48.42947" lon="2.06306">
        <ele>104.44043</ele>
        <time>2009-03-15T12:33:28Z</time>
      </trkpt>
      <trkpt lat="48.42946" lon="2.06301">
        <ele>104.44043</ele>
        <time>2009-03-15T12:33:32Z</time>
      </trkpt>
      <trkpt lat="48.42945" lon="2.0629">
        <ele>104.44043</ele>
        <time>2009-03-15T12:33:39Z</time>
      </trkpt>
      <trkpt lat="48.42945" lon="2.06285">
        <ele>104.44043</ele>
        <time>2009-03-15T12:33:42Z</time>
      </trkpt>
      <trkpt lat="48.42944" lon="2.0627">
        <ele>104.44043</ele>
        <time>2009-03-15T12:33:50Z</time>
      </trkpt>
      <trkpt lat="48.42946" lon="2.06257">
        <ele>104.44043</ele>
        <time>2009-03-15T12:33:58Z</time>
      </trkpt>
      <trkpt lat="48.42948" lon="2.06242">
        <ele>104.44043</ele>
        <time>2009-03-15T12:34:08Z</time>
      </trkpt>
      <trkpt lat="48.42949" lon="2.06228">
        <ele>104.44043</ele>
        <time>2009-03-15T12:34:16Z</time>
      </trkpt>
      <trkpt lat="48.42948" lon="2.06213">
        <ele>104.921021</ele>
        <time>2009-03-15T12:34:25Z</time>
      </trkpt>
      <trkpt lat="48.42953" lon="2.06197">
        <ele>104.921021</ele>
        <time>2009-03-15T12:34:35Z</time>
      </trkpt>
      <trkpt lat="48.42957" lon="2.06179">
        <ele>104.921021</ele>
        <time>2009-03-15T12:34:45Z</time>
      </trkpt>
      <trkpt lat="48.42957" lon="2.06177">
        <ele>104.921021</ele>
        <time>2009-03-15T12:34:46Z</time>
      </trkpt>
      <trkpt lat="48.4296" lon="2.06164">
        <ele>105.401733</ele>
        <time>2009-03-15T12:34:55Z</time>
      </trkpt>
      <trkpt lat="48.4296" lon="2.06155">
        <ele>105.401733</ele>
        <time>2009-03-15T12:35:00Z</time>
      </trkpt>
      <trkpt lat="48.4296" lon="2.06136">
        <ele>105.401733</ele>
        <time>2009-03-15T12:35:11Z</time>
      </trkpt>
      <trkpt lat="48.42961" lon="2.06119">
        <ele>104.921021</ele>
        <time>2009-03-15T12:35:21Z</time>
      </trkpt>
      <trkpt lat="48.42962" lon="2.06106">
        <ele>105.401733</ele>
        <time>2009-03-15T12:35:29Z</time>
      </trkpt>
      <trkpt lat="48.42962" lon="2.06093">
        <ele>105.882446</ele>
        <time>2009-03-15T12:35:36Z</time>
      </trkpt>
      <trkpt lat="48.42961" lon="2.0609">
        <ele>105.401733</ele>
        <time>2009-03-15T12:35:38Z</time>
      </trkpt>
      <trkpt lat="48.42963" lon="2.06078">
        <ele>105.401733</ele>
        <time>2009-03-15T12:35:46Z</time>
      </trkpt>
      <trkpt lat="48.42962" lon="2.06066">
        <ele>105.882446</ele>
        <time>2009-03-15T12:35:54Z</time>
      </trkpt>
      <trkpt lat="48.42961" lon="2.0605">
        <ele>105.401733</ele>
        <time>2009-03-15T12:36:04Z</time>
      </trkpt>
      <trkpt lat="48.42961" lon="2.06038">
        <ele>105.882446</ele>
        <time>2009-03-15T12:36:13Z</time>
      </trkpt>
      <trkpt lat="48.42962" lon="2.0602">
        <ele>105.882446</ele>
        <time>2009-03-15T12:36:22Z</time>
      </trkpt>
      <trkpt lat="48.42962" lon="2.06006">
        <ele>105.882446</ele>
        <time>2009-03-15T12:36:30Z</time>
      </trkpt>
      <trkpt lat="48.42962" lon="2.05992">
        <ele>105.401733</ele>
        <time>2009-03-15T12:36:39Z</time>
      </trkpt>
      <trkpt lat="48.42962" lon="2.05974">
        <ele>105.401733</ele>
        <time>2009-03-15T12:36:47Z</time>
      </trkpt>
      <trkpt lat="48.42962" lon="2.05964">
        <ele>105.401733</ele>
        <time>2009-03-15T12:36:54Z</time>
      </trkpt>
      <trkpt lat="48.42961" lon="2.05947">
        <ele>105.401733</ele>
        <time>2009-03-15T12:37:03Z</time>
      </trkpt>
      <trkpt lat="48.42959" lon="2.05933">
        <ele>105.401733</ele>
        <time>2009-03-15T12:37:12Z</time>
      </trkpt>
      <trkpt lat="48.42961" lon="2.05926">
        <ele>105.401733</ele>
        <time>2009-03-15T12:37:16Z</time>
      </trkpt>
      <trkpt lat="48.42959" lon="2.05904">
        <ele>105.401733</ele>
        <time>2009-03-15T12:37:26Z</time>
      </trkpt>
      <trkpt lat="48.42958" lon="2.059">
        <ele>105.401733</ele>
        <time>2009-03-15T12:37:29Z</time>
      </trkpt>
      <trkpt lat="48.42958" lon="2.05895">
        <ele>105.401733</ele>
        <time>2009-03-15T12:37:31Z</time>
      </trkpt>
      <trkpt lat="48.42957" lon="2.0588">
        <ele>105.401733</ele>
        <time>2009-03-15T12:37:39Z</time>
      </trkpt>
      <trkpt lat="48.42957" lon="2.0587">
        <ele>105.401733</ele>
        <time>2009-03-15T12:37:47Z</time>
      </trkpt>
      <trkpt lat="48.42958" lon="2.05856">
        <ele>105.401733</ele>
        <time>2009-03-15T12:37:55Z</time>
      </trkpt>
      <trkpt lat="48.42956" lon="2.05843">
        <ele>105.401733</ele>
        <time>2009-03-15T12:38:02Z</time>
      </trkpt>
      <trkpt lat="48.42955" lon="2.05827">
        <ele>104.921021</ele>
        <time>2009-03-15T12:38:11Z</time>
      </trkpt>
      <trkpt lat="48.42954" lon="2.05811">
        <ele>104.921021</ele>
        <time>2009-03-15T12:38:20Z</time>
      </trkpt>
      <trkpt lat="48.42954" lon="2.05798">
        <ele>104.921021</ele>
        <time>2009-03-15T12:38:27Z</time>
      </trkpt>
      <trkpt lat="48.42953" lon="2.05788">
        <ele>104.921021</ele>
        <time>2009-03-15T12:38:35Z</time>
      </trkpt>
      <trkpt lat="48.42953" lon="2.05771">
        <ele>104.921021</ele>
        <time>2009-03-15T12:38:43Z</time>
      </trkpt>
      <trkpt lat="48.42952" lon="2.0576">
        <ele>104.44043</ele>
        <time>2009-03-15T12:38:50Z</time>
      </trkpt>
      <trkpt lat="48.42951" lon="2.05744">
        <ele>103.959717</ele>
        <time>2009-03-15T12:38:58Z</time>
      </trkpt>
      <trkpt lat="48.42949" lon="2.05725">
        <ele>103.479004</ele>
        <time>2009-03-15T12:39:07Z</time>
      </trkpt>
      <trkpt lat="48.42949" lon="2.05712">
        <ele>103.479004</ele>
        <time>2009-03-15T12:39:16Z</time>
      </trkpt>
      <trkpt lat="48.42952" lon="2.05704">
        <ele>103.959717</ele>
        <time>2009-03-15T12:39:22Z</time>
      </trkpt>
      <trkpt lat="48.42961" lon="2.05698">
        <ele>104.44043</ele>
        <time>2009-03-15T12:39:31Z</time>
      </trkpt>
      <trkpt lat="48.42967" lon="2.05696">
        <ele>104.921021</ele>
        <time>2009-03-15T12:39:37Z</time>
      </trkpt>
      <trkpt lat="48.42972" lon="2.05694">
        <ele>104.921021</ele>
        <time>2009-03-15T12:39:45Z</time>
      </trkpt>
      <trkpt lat="48.42975" lon="2.05693">
        <ele>105.401733</ele>
        <time>2009-03-15T12:40:36Z</time>
      </trkpt>
      <trkpt lat="48.4298" lon="2.05692">
        <ele>105.401733</ele>
        <time>2009-03-15T12:40:45Z</time>
      </trkpt>
      <trkpt lat="48.42989" lon="2.05689">
        <ele>105.882446</ele>
        <time>2009-03-15T12:40:52Z</time>
      </trkpt>
      <trkpt lat="48.42999" lon="2.05687">
        <ele>106.363037</ele>
        <time>2009-03-15T12:41:00Z</time>
      </trkpt>
      <trkpt lat="48.43012" lon="2.05685">
        <ele>106.843628</ele>
        <time>2009-03-15T12:41:10Z</time>
      </trkpt>
      <trkpt lat="48.43025" lon="2.05685">
        <ele>106.843628</ele>
        <time>2009-03-15T12:41:19Z</time>
      </trkpt>
      <trkpt lat="48.43032" lon="2.05685">
        <ele>107.324341</ele>
        <time>2009-03-15T12:41:24Z</time>
      </trkpt>
      <trkpt lat="48.43043" lon="2.05686">
        <ele>108.285645</ele>
        <time>2009-03-15T12:41:33Z</time>
      </trkpt>
      <trkpt lat="48.43055" lon="2.05686">
        <ele>108.285645</ele>
        <time>2009-03-15T12:41:41Z</time>
      </trkpt>
      <trkpt lat="48.43065" lon="2.05687">
        <ele>108.766235</ele>
        <time>2009-03-15T12:41:49Z</time>
      </trkpt>
      <trkpt lat="48.43073" lon="2.05692">
        <ele>108.766235</ele>
        <time>2009-03-15T12:41:56Z</time>
      </trkpt>
      <trkpt lat="48.43083" lon="2.05693">
        <ele>109.246948</ele>
        <time>2009-03-15T12:42:04Z</time>
      </trkpt>
      <trkpt lat="48.43093" lon="2.05695">
        <ele>108.766235</ele>
        <time>2009-03-15T12:42:12Z</time>
      </trkpt>
      <trkpt lat="48.43104" lon="2.05696">
        <ele>109.246948</ele>
        <time>2009-03-15T12:42:20Z</time>
      </trkpt>
      <trkpt lat="48.43113" lon="2.05698">
        <ele>108.766235</ele>
        <time>2009-03-15T12:42:28Z</time>
      </trkpt>
      <trkpt lat="48.43123" lon="2.05696">
        <ele>109.246948</ele>
        <time>2009-03-15T12:42:36Z</time>
      </trkpt>
      <trkpt lat="48.43132" lon="2.05697">
        <ele>109.246948</ele>
        <time>2009-03-15T12:42:44Z</time>
      </trkpt>
      <trkpt lat="48.43143" lon="2.05696">
        <ele>109.727661</ele>
        <time>2009-03-15T12:42:52Z</time>
      </trkpt>
      <trkpt lat="48.43153" lon="2.05696">
        <ele>109.727661</ele>
        <time>2009-03-15T12:43:01Z</time>
      </trkpt>
      <trkpt lat="48.43162" lon="2.05696">
        <ele>109.727661</ele>
        <time>2009-03-15T12:43:09Z</time>
      </trkpt>
      <trkpt lat="48.43173" lon="2.05695">
        <ele>110.208252</ele>
        <time>2009-03-15T12:43:18Z</time>
      </trkpt>
      <trkpt lat="48.43182" lon="2.05695">
        <ele>110.208252</ele>
        <time>2009-03-15T12:43:26Z</time>
      </trkpt>
      <trkpt lat="48.4319" lon="2.05696">
        <ele>110.208252</ele>
        <time>2009-03-15T12:43:33Z</time>
      </trkpt>
      <trkpt lat="48.43201" lon="2.05695">
        <ele>110.208252</ele>
        <time>2009-03-15T12:43:42Z</time>
      </trkpt>
      <trkpt lat="48.4321" lon="2.05694">
        <ele>110.208252</ele>
        <time>2009-03-15T12:43:49Z</time>
      </trkpt>
      <trkpt lat="48.43219" lon="2.05693">
        <ele>110.208252</ele>
        <time>2009-03-15T12:43:56Z</time>
      </trkpt>
      <trkpt lat="48.43228" lon="2.05691">
        <ele>109.727661</ele>
        <time>2009-03-15T12:44:04Z</time>
      </trkpt>
      <trkpt lat="48.43242" lon="2.05691">
        <ele>110.208252</ele>
        <time>2009-03-15T12:44:14Z</time>
      </trkpt>
      <trkpt lat="48.43251" lon="2.0569">
        <ele>109.727661</ele>
        <time>2009-03-15T12:44:22Z</time>
      </trkpt>
      <trkpt lat="48.43261" lon="2.0569">
        <ele>110.208252</ele>
        <time>2009-03-15T12:44:30Z</time>
      </trkpt>
      <trkpt lat="48.43271" lon="2.05689">
        <ele>109.727661</ele>
        <time>2009-03-15T12:44:38Z</time>
      </trkpt>
      <trkpt lat="48.4328" lon="2.05689">
        <ele>109.727661</ele>
        <time>2009-03-15T12:44:46Z</time>
      </trkpt>
      <trkpt lat="48.4329" lon="2.05689">
        <ele>109.727661</ele>
        <time>2009-03-15T12:44:54Z</time>
      </trkpt>
      <trkpt lat="48.433" lon="2.05689">
        <ele>109.727661</ele>
        <time>2009-03-15T12:45:03Z</time>
      </trkpt>
      <trkpt lat="48.43309" lon="2.05688">
        <ele>110.208252</ele>
        <time>2009-03-15T12:45:11Z</time>
      </trkpt>
      <trkpt lat="48.4332" lon="2.05691">
        <ele>110.208252</ele>
        <time>2009-03-15T12:45:19Z</time>
      </trkpt>
      <trkpt lat="48.43329" lon="2.05691">
        <ele>109.727661</ele>
        <time>2009-03-15T12:45:26Z</time>
      </trkpt>
      <trkpt lat="48.43339" lon="2.05692">
        <ele>109.727661</ele>
        <time>2009-03-15T12:45:35Z</time>
      </trkpt>
      <trkpt lat="48.4335" lon="2.05697">
        <ele>109.727661</ele>
        <time>2009-03-15T12:45:45Z</time>
      </trkpt>
      <trkpt lat="48.43358" lon="2.05701">
        <ele>109.246948</ele>
        <time>2009-03-15T12:45:54Z</time>
      </trkpt>
      <trkpt lat="48.43372" lon="2.05703">
        <ele>109.246948</ele>
        <time>2009-03-15T12:46:04Z</time>
      </trkpt>
      <trkpt lat="48.43377" lon="2.05701">
        <ele>109.246948</ele>
        <time>2009-03-15T12:46:12Z</time>
      </trkpt>
      <trkpt lat="48.43382" lon="2.05701">
        <ele>109.246948</ele>
        <time>2009-03-15T12:46:21Z</time>
      </trkpt>
      <trkpt lat="48.43386" lon="2.05697">
        <ele>109.246948</ele>
        <time>2009-03-15T12:46:26Z</time>
      </trkpt>
      <trkpt lat="48.43394" lon="2.05689">
        <ele>109.246948</ele>
        <time>2009-03-15T12:46:36Z</time>
      </trkpt>
      <trkpt lat="48.434" lon="2.0568">
        <ele>109.246948</ele>
        <time>2009-03-15T12:46:45Z</time>
      </trkpt>
      <trkpt lat="48.43407" lon="2.05674">
        <ele>109.246948</ele>
        <time>2009-03-15T12:46:52Z</time>
      </trkpt>
      <trkpt lat="48.43412" lon="2.05665">
        <ele>108.766235</ele>
        <time>2009-03-15T12:47:00Z</time>
      </trkpt>
      <trkpt lat="48.43418" lon="2.05658">
        <ele>109.246948</ele>
        <time>2009-03-15T12:47:08Z</time>
      </trkpt>
      <trkpt lat="48.43426" lon="2.05649">
        <ele>108.285645</ele>
        <time>2009-03-15T12:47:17Z</time>
      </trkpt>
      <trkpt lat="48.43435" lon="2.05637">
        <ele>108.766235</ele>
        <time>2009-03-15T12:47:26Z</time>
      </trkpt>
      <trkpt lat="48.43442" lon="2.05628">
        <ele>108.766235</ele>
        <time>2009-03-15T12:47:35Z</time>
      </trkpt>
      <trkpt lat="48.43448" lon="2.05619">
        <ele>108.766235</ele>
        <time>2009-03-15T12:47:43Z</time>
      </trkpt>
      <trkpt lat="48.43455" lon="2.05609">
        <ele>108.766235</ele>
        <time>2009-03-15T12:47:52Z</time>
      </trkpt>
      <trkpt lat="48.43463" lon="2.05599">
        <ele>108.766235</ele>
        <time>2009-03-15T12:48:01Z</time>
      </trkpt>
      <trkpt lat="48.43469" lon="2.0559">
        <ele>108.766235</ele>
        <time>2009-03-15T12:48:09Z</time>
      </trkpt>
      <trkpt lat="48.43476" lon="2.05581">
        <ele>108.766235</ele>
        <time>2009-03-15T12:48:17Z</time>
      </trkpt>
      <trkpt lat="48.43484" lon="2.05568">
        <ele>108.766235</ele>
        <time>2009-03-15T12:48:27Z</time>
      </trkpt>
      <trkpt lat="48.4349" lon="2.05559">
        <ele>108.766235</ele>
        <time>2009-03-15T12:48:34Z</time>
      </trkpt>
      <trkpt lat="48.43496" lon="2.05552">
        <ele>109.246948</ele>
        <time>2009-03-15T12:48:41Z</time>
      </trkpt>
      <trkpt lat="48.43504" lon="2.05543">
        <ele>109.246948</ele>
        <time>2009-03-15T12:48:49Z</time>
      </trkpt>
      <trkpt lat="48.43511" lon="2.05534">
        <ele>109.246948</ele>
        <time>2009-03-15T12:48:57Z</time>
      </trkpt>
      <trkpt lat="48.43519" lon="2.05524">
        <ele>109.246948</ele>
        <time>2009-03-15T12:49:06Z</time>
      </trkpt>
      <trkpt lat="48.43527" lon="2.05515">
        <ele>109.246948</ele>
        <time>2009-03-15T12:49:14Z</time>
      </trkpt>
      <trkpt lat="48.43535" lon="2.05507">
        <ele>109.246948</ele>
        <time>2009-03-15T12:49:24Z</time>
      </trkpt>
      <trkpt lat="48.43544" lon="2.05503">
        <ele>109.727661</ele>
        <time>2009-03-15T12:49:32Z</time>
      </trkpt>
      <trkpt lat="48.43551" lon="2.055">
        <ele>109.727661</ele>
        <time>2009-03-15T12:49:38Z</time>
      </trkpt>
      <trkpt lat="48.43559" lon="2.05497">
        <ele>109.727661</ele>
        <time>2009-03-15T12:49:46Z</time>
      </trkpt>
      <trkpt lat="48.43567" lon="2.05497">
        <ele>110.208252</ele>
        <time>2009-03-15T12:49:52Z</time>
      </trkpt>
      <trkpt lat="48.43576" lon="2.05495">
        <ele>110.688843</ele>
        <time>2009-03-15T12:49:59Z</time>
      </trkpt>
      <trkpt lat="48.43586" lon="2.05496">
        <ele>110.688843</ele>
        <time>2009-03-15T12:50:07Z</time>
      </trkpt>
      <trkpt lat="48.43596" lon="2.05498">
        <ele>110.208252</ele>
        <time>2009-03-15T12:50:16Z</time>
      </trkpt>
      <trkpt lat="48.43604" lon="2.05497">
        <ele>110.208252</ele>
        <time>2009-03-15T12:50:24Z</time>
      </trkpt>
      <trkpt lat="48.4361" lon="2.05498">
        <ele>110.208252</ele>
        <time>2009-03-15T12:50:30Z</time>
      </trkpt>
      <trkpt lat="48.43619" lon="2.05498">
        <ele>110.688843</ele>
        <time>2009-03-15T12:50:38Z</time>
      </trkpt>
      <trkpt lat="48.4363" lon="2.05498">
        <ele>111.169556</ele>
        <time>2009-03-15T12:50:48Z</time>
      </trkpt>
      <trkpt lat="48.43637" lon="2.05498">
        <ele>111.169556</ele>
        <time>2009-03-15T12:50:54Z</time>
      </trkpt>
      <trkpt lat="48.43648" lon="2.05498">
        <ele>111.169556</ele>
        <time>2009-03-15T12:51:03Z</time>
      </trkpt>
      <trkpt lat="48.43658" lon="2.05498">
        <ele>111.169556</ele>
        <time>2009-03-15T12:51:11Z</time>
      </trkpt>
      <trkpt lat="48.43666" lon="2.05498">
        <ele>110.688843</ele>
        <time>2009-03-15T12:51:19Z</time>
      </trkpt>
      <trkpt lat="48.43678" lon="2.05499">
        <ele>110.688843</ele>
        <time>2009-03-15T12:51:28Z</time>
      </trkpt>
      <trkpt lat="48.43687" lon="2.05501">
        <ele>110.688843</ele>
        <time>2009-03-15T12:51:37Z</time>
      </trkpt>
      <trkpt lat="48.43695" lon="2.05502">
        <ele>110.208252</ele>
        <time>2009-03-15T12:51:44Z</time>
      </trkpt>
      <trkpt lat="48.43705" lon="2.05503">
        <ele>110.688843</ele>
        <time>2009-03-15T12:51:52Z</time>
      </trkpt>
      <trkpt lat="48.43716" lon="2.05502">
        <ele>110.688843</ele>
        <time>2009-03-15T12:52:01Z</time>
      </trkpt>
      <trkpt lat="48.43725" lon="2.05499">
        <ele>110.208252</ele>
        <time>2009-03-15T12:52:10Z</time>
      </trkpt>
      <trkpt lat="48.4373" lon="2.05493">
        <ele>110.688843</ele>
        <time>2009-03-15T12:52:19Z</time>
      </trkpt>
      <trkpt lat="48.43741" lon="2.05491">
        <ele>110.688843</ele>
        <time>2009-03-15T12:52:29Z</time>
      </trkpt>
      <trkpt lat="48.43747" lon="2.05484">
        <ele>110.688843</ele>
        <time>2009-03-15T12:52:38Z</time>
      </trkpt>
      <trkpt lat="48.43748" lon="2.05476">
        <ele>110.688843</ele>
        <time>2009-03-15T12:52:47Z</time>
      </trkpt>
      <trkpt lat="48.4375" lon="2.05467">
        <ele>110.208252</ele>
        <time>2009-03-15T12:52:56Z</time>
      </trkpt>
      <trkpt lat="48.43753" lon="2.05454">
        <ele>109.727661</ele>
        <time>2009-03-15T12:53:08Z</time>
      </trkpt>
      <trkpt lat="48.43753" lon="2.05452">
        <ele>109.246948</ele>
        <time>2009-03-15T12:53:16Z</time>
      </trkpt>
      <trkpt lat="48.43753" lon="2.05449">
        <ele>109.727661</ele>
        <time>2009-03-15T12:53:30Z</time>
      </trkpt>
      <trkpt lat="48.43753" lon="2.05448">
        <ele>109.246948</ele>
        <time>2009-03-15T12:54:00Z</time>
      </trkpt>
      <trkpt lat="48.43752" lon="2.05456">
        <ele>109.727661</ele>
        <time>2009-03-15T12:54:23Z</time>
      </trkpt>
      <trkpt lat="48.43751" lon="2.05472">
        <ele>110.208252</ele>
        <time>2009-03-15T12:54:38Z</time>
      </trkpt>
      <trkpt lat="48.43749" lon="2.0549">
        <ele>110.208252</ele>
        <time>2009-03-15T12:54:55Z</time>
      </trkpt>
      <trkpt lat="48.43747" lon="2.05504">
        <ele>110.208252</ele>
        <time>2009-03-15T12:55:10Z</time>
      </trkpt>
      <trkpt lat="48.43753" lon="2.05504">
        <ele>110.208252</ele>
        <time>2009-03-15T12:55:32Z</time>
      </trkpt>
      <trkpt lat="48.43761" lon="2.05505">
        <ele>110.208252</ele>
        <time>2009-03-15T12:56:12Z</time>
      </trkpt>
      <trkpt lat="48.43771" lon="2.05507">
        <ele>109.727661</ele>
        <time>2009-03-15T12:56:22Z</time>
      </trkpt>
      <trkpt lat="48.4378" lon="2.05505">
        <ele>109.727661</ele>
        <time>2009-03-15T12:56:32Z</time>
      </trkpt>
      <trkpt lat="48.43788" lon="2.05503">
        <ele>109.246948</ele>
        <time>2009-03-15T12:56:42Z</time>
      </trkpt>
      <trkpt lat="48.43796" lon="2.05506">
        <ele>108.766235</ele>
        <time>2009-03-15T12:56:54Z</time>
      </trkpt>
      <trkpt lat="48.43808" lon="2.05506">
        <ele>108.766235</ele>
        <time>2009-03-15T12:57:04Z</time>
      </trkpt>
      <trkpt lat="48.43817" lon="2.05507">
        <ele>109.246948</ele>
        <time>2009-03-15T12:57:15Z</time>
      </trkpt>
      <trkpt lat="48.43827" lon="2.05509">
        <ele>109.246948</ele>
        <time>2009-03-15T12:57:25Z</time>
      </trkpt>
      <trkpt lat="48.43837" lon="2.05507">
        <ele>108.766235</ele>
        <time>2009-03-15T12:57:34Z</time>
      </trkpt>
      <trkpt lat="48.43849" lon="2.05505">
        <ele>109.246948</ele>
        <time>2009-03-15T12:57:46Z</time>
      </trkpt>
      <trkpt lat="48.43865" lon="2.05508">
        <ele>109.246948</ele>
        <time>2009-03-15T12:57:59Z</time>
      </trkpt>
      <trkpt lat="48.43875" lon="2.05509">
        <ele>109.246948</ele>
        <time>2009-03-15T12:58:08Z</time>
      </trkpt>
      <trkpt lat="48.43885" lon="2.05508">
        <ele>109.246948</ele>
        <time>2009-03-15T12:58:17Z</time>
      </trkpt>
      <trkpt lat="48.43893" lon="2.05505">
        <ele>108.766235</ele>
        <time>2009-03-15T12:58:25Z</time>
      </trkpt>
      <trkpt lat="48.43905" lon="2.05506">
        <ele>108.766235</ele>
        <time>2009-03-15T12:58:33Z</time>
      </trkpt>
      <trkpt lat="48.43917" lon="2.05506">
        <ele>108.766235</ele>
        <time>2009-03-15T12:58:42Z</time>
      </trkpt>
      <trkpt lat="48.43927" lon="2.05508">
        <ele>108.285645</ele>
        <time>2009-03-15T12:58:51Z</time>
      </trkpt>
      <trkpt lat="48.4394" lon="2.05508">
        <ele>108.285645</ele>
        <time>2009-03-15T12:59:02Z</time>
      </trkpt>
      <trkpt lat="48.43952" lon="2.05505">
        <ele>107.324341</ele>
        <time>2009-03-15T12:59:10Z</time>
      </trkpt>
      <trkpt lat="48.43962" lon="2.05506">
        <ele>106.843628</ele>
        <time>2009-03-15T12:59:19Z</time>
      </trkpt>
      <trkpt lat="48.43971" lon="2.05506">
        <ele>106.363037</ele>
        <time>2009-03-15T12:59:27Z</time>
      </trkpt>
      <trkpt lat="48.43982" lon="2.05507">
        <ele>105.401733</ele>
        <time>2009-03-15T12:59:35Z</time>
      </trkpt>
      <trkpt lat="48.43994" lon="2.05507">
        <ele>104.44043</ele>
        <time>2009-03-15T12:59:47Z</time>
      </trkpt>
      <trkpt lat="48.44002" lon="2.05507">
        <ele>103.959717</ele>
        <time>2009-03-15T12:59:56Z</time>
      </trkpt>
      <trkpt lat="48.44009" lon="2.05506">
        <ele>102.998291</ele>
        <time>2009-03-15T13:00:02Z</time>
      </trkpt>
      <trkpt lat="48.44017" lon="2.05506">
        <ele>102.5177</ele>
        <time>2009-03-15T13:00:10Z</time>
      </trkpt>
      <trkpt lat="48.44026" lon="2.05507">
        <ele>101.075684</ele>
        <time>2009-03-15T13:00:20Z</time>
      </trkpt>
      <trkpt lat="48.4403" lon="2.05505">
        <ele>101.075684</ele>
        <time>2009-03-15T13:00:26Z</time>
      </trkpt>
      <trkpt lat="48.44035" lon="2.05502">
        <ele>100.114502</ele>
        <time>2009-03-15T13:00:32Z</time>
      </trkpt>
      <trkpt lat="48.44046" lon="2.05502">
        <ele>99.633789</ele>
        <time>2009-03-15T13:00:42Z</time>
      </trkpt>
      <trkpt lat="48.44056" lon="2.05502">
        <ele>99.153076</ele>
        <time>2009-03-15T13:00:49Z</time>
      </trkpt>
      <trkpt lat="48.44064" lon="2.05501">
        <ele>99.633789</ele>
        <time>2009-03-15T13:00:55Z</time>
      </trkpt>
      <trkpt lat="48.44073" lon="2.055">
        <ele>99.153076</ele>
        <time>2009-03-15T13:01:04Z</time>
      </trkpt>
      <trkpt lat="48.44078" lon="2.05503">
        <ele>99.633789</ele>
        <time>2009-03-15T13:01:11Z</time>
      </trkpt>
      <trkpt lat="48.44087" lon="2.0551">
        <ele>99.633789</ele>
        <time>2009-03-15T13:01:20Z</time>
      </trkpt>
      <trkpt lat="48.44094" lon="2.05511">
        <ele>101.075684</ele>
        <time>2009-03-15T13:01:29Z</time>
      </trkpt>
      <trkpt lat="48.44098" lon="2.0551">
        <ele>102.037109</ele>
        <time>2009-03-15T13:01:37Z</time>
      </trkpt>
      <trkpt lat="48.44108" lon="2.05509">
        <ele>102.998291</ele>
        <time>2009-03-15T13:01:49Z</time>
      </trkpt>
      <trkpt lat="48.44114" lon="2.05513">
        <ele>102.998291</ele>
        <time>2009-03-15T13:01:52Z</time>
      </trkpt>
      <trkpt lat="48.44125" lon="2.05524">
        <ele>103.479004</ele>
        <time>2009-03-15T13:02:00Z</time>
      </trkpt>
      <trkpt lat="48.44134" lon="2.05535">
        <ele>102.998291</ele>
        <time>2009-03-15T13:02:10Z</time>
      </trkpt>
      <trkpt lat="48.44144" lon="2.05547">
        <ele>102.998291</ele>
        <time>2009-03-15T13:02:21Z</time>
      </trkpt>
      <trkpt lat="48.44153" lon="2.05561">
        <ele>103.479004</ele>
        <time>2009-03-15T13:02:32Z</time>
      </trkpt>
      <trkpt lat="48.44162" lon="2.05569">
        <ele>103.479004</ele>
        <time>2009-03-15T13:02:42Z</time>
      </trkpt>
      <trkpt lat="48.44166" lon="2.05579">
        <ele>102.998291</ele>
        <time>2009-03-15T13:02:50Z</time>
      </trkpt>
      <trkpt lat="48.44175" lon="2.05592">
        <ele>103.479004</ele>
        <time>2009-03-15T13:03:02Z</time>
      </trkpt>
      <trkpt lat="48.44187" lon="2.0561">
        <ele>103.479004</ele>
        <time>2009-03-15T13:03:15Z</time>
      </trkpt>
      <trkpt lat="48.44194" lon="2.05623">
        <ele>102.998291</ele>
        <time>2009-03-15T13:03:25Z</time>
      </trkpt>
      <trkpt lat="48.442" lon="2.05636">
        <ele>102.5177</ele>
        <time>2009-03-15T13:03:35Z</time>
      </trkpt>
      <trkpt lat="48.4421" lon="2.05652">
        <ele>102.037109</ele>
        <time>2009-03-15T13:03:47Z</time>
      </trkpt>
      <trkpt lat="48.44217" lon="2.05663">
        <ele>101.556396</ele>
        <time>2009-03-15T13:03:56Z</time>
      </trkpt>
      <trkpt lat="48.44225" lon="2.05675">
        <ele>101.075684</ele>
        <time>2009-03-15T13:04:06Z</time>
      </trkpt>
      <trkpt lat="48.4423" lon="2.05687">
        <ele>100.595093</ele>
        <time>2009-03-15T13:04:15Z</time>
      </trkpt>
      <trkpt lat="48.44232" lon="2.05697">
        <ele>99.633789</ele>
        <time>2009-03-15T13:04:22Z</time>
      </trkpt>
      <trkpt lat="48.44238" lon="2.05706">
        <ele>99.633789</ele>
        <time>2009-03-15T13:04:29Z</time>
      </trkpt>
      <trkpt lat="48.44247" lon="2.05717">
        <ele>99.153076</ele>
        <time>2009-03-15T13:04:38Z</time>
      </trkpt>
      <trkpt lat="48.44254" lon="2.05732">
        <ele>98.672485</ele>
        <time>2009-03-15T13:04:48Z</time>
      </trkpt>
      <trkpt lat="48.44258" lon="2.05742">
        <ele>98.191895</ele>
        <time>2009-03-15T13:04:55Z</time>
      </trkpt>
      <trkpt lat="48.44265" lon="2.05755">
        <ele>97.230469</ele>
        <time>2009-03-15T13:05:06Z</time>
      </trkpt>
      <trkpt lat="48.4427" lon="2.05767">
        <ele>96.749878</ele>
        <time>2009-03-15T13:05:14Z</time>
      </trkpt>
      <trkpt lat="48.44275" lon="2.05774">
        <ele>96.269287</ele>
        <time>2009-03-15T13:05:22Z</time>
      </trkpt>
      <trkpt lat="48.44281" lon="2.05785">
        <ele>95.788452</ele>
        <time>2009-03-15T13:05:30Z</time>
      </trkpt>
      <trkpt lat="48.44289" lon="2.05795">
        <ele>94.346558</ele>
        <time>2009-03-15T13:05:40Z</time>
      </trkpt>
      <trkpt lat="48.443" lon="2.05801">
        <ele>93.385132</ele>
        <time>2009-03-15T13:05:52Z</time>
      </trkpt>
      <trkpt lat="48.44311" lon="2.05806">
        <ele>91.943237</ele>
        <time>2009-03-15T13:06:02Z</time>
      </trkpt>
      <trkpt lat="48.44316" lon="2.05808">
        <ele>90.981934</ele>
        <time>2009-03-15T13:06:10Z</time>
      </trkpt>
      <trkpt lat="48.4433" lon="2.05806">
        <ele>90.02063</ele>
        <time>2009-03-15T13:06:21Z</time>
      </trkpt>
      <trkpt lat="48.44343" lon="2.05804">
        <ele>89.539917</ele>
        <time>2009-03-15T13:06:31Z</time>
      </trkpt>
      <trkpt lat="48.44355" lon="2.05799">
        <ele>88.578735</ele>
        <time>2009-03-15T13:06:42Z</time>
      </trkpt>
      <trkpt lat="48.44365" lon="2.05789">
        <ele>87.617188</ele>
        <time>2009-03-15T13:06:52Z</time>
      </trkpt>
      <trkpt lat="48.44373" lon="2.05782">
        <ele>86.656006</ele>
        <time>2009-03-15T13:07:01Z</time>
      </trkpt>
      <trkpt lat="48.44384" lon="2.05772">
        <ele>85.69458</ele>
        <time>2009-03-15T13:07:13Z</time>
      </trkpt>
      <trkpt lat="48.44393" lon="2.05761">
        <ele>84.252686</ele>
        <time>2009-03-15T13:07:24Z</time>
      </trkpt>
      <trkpt lat="48.44405" lon="2.0575">
        <ele>82.810791</ele>
        <time>2009-03-15T13:07:37Z</time>
      </trkpt>
      <trkpt lat="48.44415" lon="2.05744">
        <ele>81.849365</ele>
        <time>2009-03-15T13:07:47Z</time>
      </trkpt>
      <trkpt lat="48.44425" lon="2.05737">
        <ele>80.888184</ele>
        <time>2009-03-15T13:07:58Z</time>
      </trkpt>
      <trkpt lat="48.44435" lon="2.05731">
        <ele>81.368774</ele>
        <time>2009-03-15T13:08:10Z</time>
      </trkpt>
      <trkpt lat="48.44434" lon="2.0573">
        <ele>80.407471</ele>
        <time>2009-03-15T13:08:18Z</time>
      </trkpt>
    </trkseg>
  </trk>
</gpx>